sensor_id;sensor_type;location;lat;lon;timestamp;temperature;humidity
32107;DHT22;18622;51.998;10.440;2022-09-09T02:19:27;16.30;94.50
32107;DHT22;18622;51.998;10.440;2022-09-09T02:21:59;16.30;94.50
32107;DHT22;18622;51.998;10.440;2022-09-09T02:24:30;16.40;94.40
32107;DHT22;18622;51.998;10.440;2022-09-09T02:27:02;16.40;94.40
32107;DHT22;18622;51.998;10.440;2022-09-09T02:29:36;16.40;94.40
32107;DHT22;18622;51.998;10.440;2022-09-09T02:32:07;16.40;94.40
32107;DHT22;18622;51.998;10.440;2022-09-09T02:34:40;16.40;94.30
32107;DHT22;18622;51.998;10.440;2022-09-09T02:37:08;16.40;94.30
32107;DHT22;18622;51.998;10.440;2022-09-09T02:39:38;16.40;94.30
32107;DHT22;18622;51.998;10.440;2022-09-09T02:42:05;16.40;94.40
32107;DHT22;18622;51.998;10.440;2022-09-09T02:44:35;16.40;94.40
32107;DHT22;18622;51.998;10.440;2022-09-09T02:47:15;16.50;94.40
32107;DHT22;18622;51.998;10.440;2022-09-09T02:50:08;16.40;94.30
32107;DHT22;18622;51.998;10.440;2022-09-09T02:57:59;16.40;94.30
32107;DHT22;18622;51.998;10.440;2022-09-09T03:30:48;16.30;94.60
32107;DHT22;18622;51.998;10.440;2022-09-09T03:33:16;16.30;94.70
32107;DHT22;18622;51.998;10.440;2022-09-09T03:35:47;16.30;94.80
32107;DHT22;18622;51.998;10.440;2022-09-09T03:38:15;16.30;94.80
32107;DHT22;18622;51.998;10.440;2022-09-09T03:40:55;16.30;94.90
32107;DHT22;18622;51.998;10.440;2022-09-09T03:43:24;16.30;94.80
32107;DHT22;18622;51.998;10.440;2022-09-09T03:45:52;16.30;94.80
32107;DHT22;18622;51.998;10.440;2022-09-09T03:48:22;16.30;94.80
32107;DHT22;18622;51.998;10.440;2022-09-09T03:50:52;16.30;94.80
32107;DHT22;18622;51.998;10.440;2022-09-09T03:53:22;16.30;94.80
32107;DHT22;18622;51.998;10.440;2022-09-09T03:55:52;16.40;94.80
32107;DHT22;18622;51.998;10.440;2022-09-09T03:58:23;16.40;94.80
32107;DHT22;18622;51.998;10.440;2022-09-09T04:00:58;16.40;94.80
32107;DHT22;18622;51.998;10.440;2022-09-09T04:03:26;16.40;94.80
32107;DHT22;18622;51.998;10.440;2022-09-09T04:05:54;16.40;94.90
32107;DHT22;18622;51.998;10.440;2022-09-09T04:08:23;16.50;94.90
32107;DHT22;18622;51.998;10.440;2022-09-09T04:10:54;16.50;94.80
32107;DHT22;18622;51.998;10.440;2022-09-09T04:13:23;16.60;94.80
32107;DHT22;18622;51.998;10.440;2022-09-09T04:15:53;16.50;94.80
32107;DHT22;18622;51.998;10.440;2022-09-09T04:18:20;16.50;94.80
32107;DHT22;18622;51.998;10.440;2022-09-09T04:20:49;16.60;94.80
32107;DHT22;18622;51.998;10.440;2022-09-09T04:23:17;16.60;94.80
32107;DHT22;18622;51.998;10.440;2022-09-09T04:25:52;16.60;94.80
32107;DHT22;18622;51.998;10.440;2022-09-09T04:28:21;16.70;94.70
32107;DHT22;18622;51.998;10.440;2022-09-09T04:30:49;16.80;94.60
32107;DHT22;18622;51.998;10.440;2022-09-09T04:33:17;16.80;94.50
32107;DHT22;18622;51.998;10.440;2022-09-09T04:35:46;16.90;94.30
32107;DHT22;18622;51.998;10.440;2022-09-09T04:38:16;17.00;94.30
32107;DHT22;18622;51.998;10.440;2022-09-09T04:40:46;17.00;94.00
32107;DHT22;18622;51.998;10.440;2022-09-09T04:43:14;17.10;93.90
32107;DHT22;18622;51.998;10.440;2022-09-09T04:45:43;17.10;93.70
32107;DHT22;18622;51.998;10.440;2022-09-09T04:48:11;17.20;93.60
32107;DHT22;18622;51.998;10.440;2022-09-09T04:50:38;17.20;93.40
32107;DHT22;18622;51.998;10.440;2022-09-09T04:53:07;17.30;93.30
32107;DHT22;18622;51.998;10.440;2022-09-09T04:55:36;17.30;93.30
32107;DHT22;18622;51.998;10.440;2022-09-09T04:58:08;17.30;93.20
32107;DHT22;18622;51.998;10.440;2022-09-09T05:00:35;17.40;93.10
32107;DHT22;18622;51.998;10.440;2022-09-09T05:03:04;17.40;93.10
32107;DHT22;18622;51.998;10.440;2022-09-09T05:05:33;17.40;93.10
32107;DHT22;18622;51.998;10.440;2022-09-09T05:08:05;17.40;93.20
32107;DHT22;18622;51.998;10.440;2022-09-09T05:10:34;17.50;93.10
32107;DHT22;18622;51.998;10.440;2022-09-09T05:13:03;17.50;93.10
32107;DHT22;18622;51.998;10.440;2022-09-09T09:04:52;23.40;72.20
32107;DHT22;18622;51.998;10.440;2022-09-09T09:07:35;23.80;70.10
32107;DHT22;18622;51.998;10.440;2022-09-09T09:10:02;24.10;69.70
32107;DHT22;18622;51.998;10.440;2022-09-09T09:12:39;24.40;68.20
32107;DHT22;18622;51.998;10.440;2022-09-09T09:17:30;25.20;67.00
32107;DHT22;18622;51.998;10.440;2022-09-09T09:19:59;25.60;64.50
32107;DHT22;18622;51.998;10.440;2022-09-09T09:22:46;25.60;63.60
32107;DHT22;18622;51.998;10.440;2022-09-09T09:25:26;25.40;63.40
32107;DHT22;18622;51.998;10.440;2022-09-09T09:27:58;25.20;64.60
32107;DHT22;18622;51.998;10.440;2022-09-09T09:30:36;25.30;63.70
32107;DHT22;18622;51.998;10.440;2022-09-09T09:33:22;25.40;63.00
32107;DHT22;18622;51.998;10.440;2022-09-09T09:35:50;25.70;62.60
32107;DHT22;18622;51.998;10.440;2022-09-09T09:38:23;26.10;61.70
32107;DHT22;18622;51.998;10.440;2022-09-09T09:40:55;26.40;61.10
32107;DHT22;18622;51.998;10.440;2022-09-09T09:43:28;26.90;60.40
32107;DHT22;18622;51.998;10.440;2022-09-09T09:45:56;27.40;58.50
32107;DHT22;18622;51.998;10.440;2022-09-09T09:48:27;27.70;56.00
32107;DHT22;18622;51.998;10.440;2022-09-09T09:51:00;27.90;55.50
32107;DHT22;18622;51.998;10.440;2022-09-09T09:53:30;28.20;56.40
32107;DHT22;18622;51.998;10.440;2022-09-09T09:56:02;28.90;56.10
32107;DHT22;18622;51.998;10.440;2022-09-09T09:58:32;29.50;53.80
32107;DHT22;18622;51.998;10.440;2022-09-09T10:01:01;29.80;51.30
32107;DHT22;18622;51.998;10.440;2022-09-09T10:03:33;29.80;51.10
32107;DHT22;18622;51.998;10.440;2022-09-09T10:06:04;29.80;50.60
32107;DHT22;18622;51.998;10.440;2022-09-09T10:08:34;29.90;48.80
32107;DHT22;18622;51.998;10.440;2022-09-09T10:19:34;29.30;49.20
32107;DHT22;18622;51.998;10.440;2022-09-09T10:22:24;29.30;49.90
32107;DHT22;18622;51.998;10.440;2022-09-09T10:25:01;29.70;48.60
32107;DHT22;18622;51.998;10.440;2022-09-09T10:30:44;29.40;48.60
32107;DHT22;18622;51.998;10.440;2022-09-09T10:33:12;29.20;48.70
32107;DHT22;18622;51.998;10.440;2022-09-09T10:35:44;29.10;48.90
32107;DHT22;18622;51.998;10.440;2022-09-09T10:38:26;29.20;47.70
32107;DHT22;18622;51.998;10.440;2022-09-09T10:46:31;28.10;49.80
32107;DHT22;18622;51.998;10.440;2022-09-09T10:52:02;28.00;50.60
32107;DHT22;18622;51.998;10.440;2022-09-09T10:55:19;28.40;49.40
32107;DHT22;18622;51.998;10.440;2022-09-09T10:57:25;28.60;49.10
32107;DHT22;18622;51.998;10.440;2022-09-09T10:59:53;28.70;49.00
32107;DHT22;18622;51.998;10.440;2022-09-09T12:35:03;33.80;36.30
32107;DHT22;18622;51.998;10.440;2022-09-09T12:40:22;32.20;38.90
32107;DHT22;18622;51.998;10.440;2022-09-09T12:42:50;31.50;39.40
32107;DHT22;18622;51.998;10.440;2022-09-09T12:45:20;31.00;40.20
32107;DHT22;18622;51.998;10.440;2022-09-09T12:47:56;30.90;40.10
32107;DHT22;18622;51.998;10.440;2022-09-09T12:50:27;30.70;40.80
32107;DHT22;18622;51.998;10.440;2022-09-09T12:53:01;30.40;41.40
32107;DHT22;18622;51.998;10.440;2022-09-09T12:55:31;29.60;42.30
32107;DHT22;18622;51.998;10.440;2022-09-09T12:58:01;29.40;43.70
32107;DHT22;18622;51.998;10.440;2022-09-09T13:00:31;30.40;43.00
32107;DHT22;18622;51.998;10.440;2022-09-09T13:03:14;31.50;39.80
32107;DHT22;18622;51.998;10.440;2022-09-09T13:05:37;32.40;39.00
32107;DHT22;18622;51.998;10.440;2022-09-09T13:08:02;32.10;38.60
32107;DHT22;18622;51.998;10.440;2022-09-09T13:10:36;31.10;40.00
32107;DHT22;18622;51.998;10.440;2022-09-09T13:13:01;30.20;41.80
32107;DHT22;18622;51.998;10.440;2022-09-09T13:15:30;29.70;42.50
32107;DHT22;18622;51.998;10.440;2022-09-09T13:18:01;30.40;41.50
32107;DHT22;18622;51.998;10.440;2022-09-09T13:20:28;31.40;39.90
32107;DHT22;18622;51.998;10.440;2022-09-09T13:22:57;32.00;38.90
32107;DHT22;18622;51.998;10.440;2022-09-09T13:25:27;31.70;39.20
32107;DHT22;18622;51.998;10.440;2022-09-09T13:28:03;31.60;40.20
32107;DHT22;18622;51.998;10.440;2022-09-09T13:30:36;32.10;39.60
32107;DHT22;18622;51.998;10.440;2022-09-09T13:35:53;33.70;37.70
32107;DHT22;18622;51.998;10.440;2022-09-09T13:38:21;34.20;37.00
32107;DHT22;18622;51.998;10.440;2022-09-09T13:41:03;34.40;35.80
32107;DHT22;18622;51.998;10.440;2022-09-09T13:43:42;34.60;35.90
32107;DHT22;18622;51.998;10.440;2022-09-09T13:48:58;34.70;35.40
32107;DHT22;18622;51.998;10.440;2022-09-09T13:51:30;34.40;34.30
32107;DHT22;18622;51.998;10.440;2022-09-09T13:53:57;33.70;34.80
32107;DHT22;18622;51.998;10.440;2022-09-09T13:56:25;32.90;35.30
32107;DHT22;18622;51.998;10.440;2022-09-09T13:58:53;32.20;35.90
32107;DHT22;18622;51.998;10.440;2022-09-09T14:01:21;31.60;36.10
32107;DHT22;18622;51.998;10.440;2022-09-09T14:03:49;31.20;36.60
32107;DHT22;18622;51.998;10.440;2022-09-09T14:06:17;31.00;37.30
32107;DHT22;18622;51.998;10.440;2022-09-09T14:08:45;30.70;37.30
32107;DHT22;18622;51.998;10.440;2022-09-09T14:11:13;30.30;38.00
32107;DHT22;18622;51.998;10.440;2022-09-09T14:13:41;29.90;38.70
32107;DHT22;18622;51.998;10.440;2022-09-09T14:16:09;29.30;39.20
32107;DHT22;18622;51.998;10.440;2022-09-09T14:18:36;28.90;39.00
32107;DHT22;18622;51.998;10.440;2022-09-09T14:21:05;28.60;39.60
32107;DHT22;18622;51.998;10.440;2022-09-09T14:23:33;28.20;39.80
32107;DHT22;18622;51.998;10.440;2022-09-09T14:26:01;27.80;41.00
32107;DHT22;18622;51.998;10.440;2022-09-09T14:28:29;27.60;42.10
32107;DHT22;18622;51.998;10.440;2022-09-09T14:31:00;27.50;41.70
32107;DHT22;18622;51.998;10.440;2022-09-09T14:33:29;27.50;41.20
32107;DHT22;18622;51.998;10.440;2022-09-09T14:36:01;28.00;41.40
32107;DHT22;18622;51.998;10.440;2022-09-09T14:38:30;29.50;39.60
32107;DHT22;18622;51.998;10.440;2022-09-09T14:40:57;30.60;38.40
32107;DHT22;18622;51.998;10.440;2022-09-09T14:43:25;31.50;37.50
32107;DHT22;18622;51.998;10.440;2022-09-09T14:45:53;32.40;36.30
32107;DHT22;18622;51.998;10.440;2022-09-09T14:48:21;32.40;36.00
32107;DHT22;18622;51.998;10.440;2022-09-09T14:50:49;32.10;35.90
32107;DHT22;18622;51.998;10.440;2022-09-09T14:53:17;32.00;36.10
32107;DHT22;18622;51.998;10.440;2022-09-09T14:55:44;32.60;35.80
32107;DHT22;18622;51.998;10.440;2022-09-09T14:58:13;33.40;33.50
32107;DHT22;18622;51.998;10.440;2022-09-09T15:00:40;33.50;32.70
32107;DHT22;18622;51.998;10.440;2022-09-09T15:03:09;33.50;32.70
32107;DHT22;18622;51.998;10.440;2022-09-09T15:05:37;33.50;32.30
32107;DHT22;18622;51.998;10.440;2022-09-09T15:08:05;33.60;32.30
32107;DHT22;18622;51.998;10.440;2022-09-09T15:10:33;33.50;32.70
32107;DHT22;18622;51.998;10.440;2022-09-09T15:13:00;33.50;32.70
32107;DHT22;18622;51.998;10.440;2022-09-09T15:15:28;33.70;33.30
32107;DHT22;18622;51.998;10.440;2022-09-09T15:17:56;34.00;32.40
32107;DHT22;18622;51.998;10.440;2022-09-09T15:20:24;33.90;32.90
32107;DHT22;18622;51.998;10.440;2022-09-09T15:22:52;33.90;32.60
32107;DHT22;18622;51.998;10.440;2022-09-09T15:25:20;33.70;32.60
32107;DHT22;18622;51.998;10.440;2022-09-09T15:27:48;33.30;33.10
32107;DHT22;18622;51.998;10.440;2022-09-09T15:30:16;33.00;33.80
32107;DHT22;18622;51.998;10.440;2022-09-09T15:32:44;33.10;34.00
32107;DHT22;18622;51.998;10.440;2022-09-09T15:35:12;33.10;32.50
32107;DHT22;18622;51.998;10.440;2022-09-09T15:37:39;32.60;32.50
32107;DHT22;18622;51.998;10.440;2022-09-09T15:40:08;32.30;33.10
32107;DHT22;18622;51.998;10.440;2022-09-09T15:42:35;32.20;33.60
32107;DHT22;18622;51.998;10.440;2022-09-09T15:45:04;31.70;33.60
32107;DHT22;18622;51.998;10.440;2022-09-09T15:47:32;31.10;33.60
32107;DHT22;18622;51.998;10.440;2022-09-09T15:50:00;31.00;34.20
32107;DHT22;18622;51.998;10.440;2022-09-09T15:52:28;31.00;34.40
32107;DHT22;18622;51.998;10.440;2022-09-09T15:54:55;31.30;34.70
32107;DHT22;18622;51.998;10.440;2022-09-09T15:57:23;31.70;33.90
32107;DHT22;18622;51.998;10.440;2022-09-09T15:59:51;31.80;33.80
32107;DHT22;18622;51.998;10.440;2022-09-09T16:02:19;31.80;34.00
32107;DHT22;18622;51.998;10.440;2022-09-09T16:04:47;31.70;34.50
32107;DHT22;18622;51.998;10.440;2022-09-09T16:07:14;31.80;34.50
32107;DHT22;18622;51.998;10.440;2022-09-09T16:09:42;31.70;34.60
32107;DHT22;18622;51.998;10.440;2022-09-09T16:12:10;30.80;35.10
32107;DHT22;18622;51.998;10.440;2022-09-09T16:14:39;29.70;37.10
32107;DHT22;18622;51.998;10.440;2022-09-09T16:17:07;29.30;37.70
32107;DHT22;18622;51.998;10.440;2022-09-09T16:19:35;29.40;38.00
32107;DHT22;18622;51.998;10.440;2022-09-09T16:22:04;29.50;37.70
32107;DHT22;18622;51.998;10.440;2022-09-09T16:24:33;29.10;38.20
32107;DHT22;18622;51.998;10.440;2022-09-09T16:27:01;28.30;39.20
32107;DHT22;18622;51.998;10.440;2022-09-09T16:29:29;27.30;40.60
32107;DHT22;18622;51.998;10.440;2022-09-09T16:31:56;26.50;41.90
32107;DHT22;18622;51.998;10.440;2022-09-09T16:34:25;25.80;43.00
32107;DHT22;18622;51.998;10.440;2022-09-09T16:36:52;25.40;43.90
32107;DHT22;18622;51.998;10.440;2022-09-09T16:39:20;24.90;44.70
32107;DHT22;18622;51.998;10.440;2022-09-09T16:41:49;24.60;45.30
32107;DHT22;18622;51.998;10.440;2022-09-09T16:44:17;24.30;45.90
32107;DHT22;18622;51.998;10.440;2022-09-09T16:46:47;24.10;46.50
32107;DHT22;18622;51.998;10.440;2022-09-09T16:49:17;23.80;46.90
32107;DHT22;18622;51.998;10.440;2022-09-09T16:51:49;23.60;47.50
32107;DHT22;18622;51.998;10.440;2022-09-09T16:54:19;23.40;48.20
32107;DHT22;18622;51.998;10.440;2022-09-09T16:56:48;23.20;48.70
32107;DHT22;18622;51.998;10.440;2022-09-09T16:59:20;23.10;49.10
32107;DHT22;18622;51.998;10.440;2022-09-09T17:01:51;22.90;49.70
32107;DHT22;18622;51.998;10.440;2022-09-09T17:04:24;22.80;50.10
32107;DHT22;18622;51.998;10.440;2022-09-09T17:06:53;22.70;50.30
32107;DHT22;18622;51.998;10.440;2022-09-09T17:09:22;22.60;50.60
32107;DHT22;18622;51.998;10.440;2022-09-09T17:11:51;22.50;51.30
32107;DHT22;18622;51.998;10.440;2022-09-09T17:14:20;22.40;52.10
32107;DHT22;18622;51.998;10.440;2022-09-09T17:16:49;22.30;53.50
32107;DHT22;18622;51.998;10.440;2022-09-09T17:19:16;22.10;54.10
32107;DHT22;18622;51.998;10.440;2022-09-09T17:21:44;22.00;54.20
32107;DHT22;18622;51.998;10.440;2022-09-09T17:24:14;21.90;54.70
32107;DHT22;18622;51.998;10.440;2022-09-09T17:26:42;21.80;54.70
32107;DHT22;18622;51.998;10.440;2022-09-09T17:29:10;21.70;55.10
32107;DHT22;18622;51.998;10.440;2022-09-09T17:31:38;21.60;54.80
32107;DHT22;18622;51.998;10.440;2022-09-09T17:34:08;21.60;55.40
32107;DHT22;18622;51.998;10.440;2022-09-09T17:36:36;21.50;55.20
32107;DHT22;18622;51.998;10.440;2022-09-09T17:39:05;21.40;55.30
32107;DHT22;18622;51.998;10.440;2022-09-09T17:41:35;21.30;55.70
32107;DHT22;18622;51.998;10.440;2022-09-09T17:44:02;21.20;56.50
32107;DHT22;18622;51.998;10.440;2022-09-09T17:46:37;21.00;56.30
32107;DHT22;18622;51.998;10.440;2022-09-09T17:49:07;20.80;57.70
32107;DHT22;18622;51.998;10.440;2022-09-09T17:51:36;20.60;59.10
32107;DHT22;18622;51.998;10.440;2022-09-09T17:54:06;20.40;60.40
32107;DHT22;18622;51.998;10.440;2022-09-09T17:56:38;20.30;61.70
32107;DHT22;18622;51.998;10.440;2022-09-09T17:59:08;20.00;62.70
32107;DHT22;18622;51.998;10.440;2022-09-09T18:01:36;19.80;63.40
32107;DHT22;18622;51.998;10.440;2022-09-09T18:04:06;19.70;63.30
32107;DHT22;18622;51.998;10.440;2022-09-09T18:06:37;19.40;64.00
32107;DHT22;18622;51.998;10.440;2022-09-09T18:09:11;19.30;65.10
32107;DHT22;18622;51.998;10.440;2022-09-09T18:11:44;19.10;66.00
32107;DHT22;18622;51.998;10.440;2022-09-09T18:14:17;19.00;66.40
32107;DHT22;18622;51.998;10.440;2022-09-09T18:16:46;18.80;67.50
32107;DHT22;18622;51.998;10.440;2022-09-09T18:19:17;18.70;68.00
32107;DHT22;18622;51.998;10.440;2022-09-09T18:21:45;18.60;68.90
32107;DHT22;18622;51.998;10.440;2022-09-09T18:24:14;18.40;69.30
32107;DHT22;18622;51.998;10.440;2022-09-09T18:26:43;18.30;69.90
32107;DHT22;18622;51.998;10.440;2022-09-09T18:29:14;18.20;70.50
32107;DHT22;18622;51.998;10.440;2022-09-09T18:31:41;18.10;71.30
32107;DHT22;18622;51.998;10.440;2022-09-09T18:34:11;18.00;71.80
32107;DHT22;18622;51.998;10.440;2022-09-09T18:36:47;17.90;72.40
32107;DHT22;18622;51.998;10.440;2022-09-09T18:39:18;17.80;73.20
32107;DHT22;18622;51.998;10.440;2022-09-09T18:41:49;17.70;73.80
32107;DHT22;18622;51.998;10.440;2022-09-09T18:44:26;17.60;74.60
32107;DHT22;18622;51.998;10.440;2022-09-09T18:46:54;17.40;74.80
32107;DHT22;18622;51.998;10.440;2022-09-09T18:49:23;17.40;75.50
32107;DHT22;18622;51.998;10.440;2022-09-09T18:51:51;17.30;76.10
32107;DHT22;18622;51.998;10.440;2022-09-09T18:54:26;17.20;76.40
32107;DHT22;18622;51.998;10.440;2022-09-09T18:56:50;17.10;77.20
32107;DHT22;18622;51.998;10.440;2022-09-09T18:59:20;17.00;77.80
32107;DHT22;18622;51.998;10.440;2022-09-09T19:01:50;16.90;77.80
32107;DHT22;18622;51.998;10.440;2022-09-09T19:04:20;16.90;78.60
32107;DHT22;18622;51.998;10.440;2022-09-09T19:06:51;16.80;79.20
32107;DHT22;18622;51.998;10.440;2022-09-09T19:09:21;16.80;79.40
32107;DHT22;18622;51.998;10.440;2022-09-09T19:14:18;16.70;80.10
32107;DHT22;18622;51.998;10.440;2022-09-09T19:16:46;16.60;80.30
32107;DHT22;18622;51.998;10.440;2022-09-09T19:19:16;16.60;80.60
32107;DHT22;18622;51.998;10.440;2022-09-09T19:21:44;16.60;80.70
32107;DHT22;18622;51.998;10.440;2022-09-09T19:24:18;16.50;81.00
32107;DHT22;18622;51.998;10.440;2022-09-09T19:26:49;16.50;81.50
32107;DHT22;18622;51.998;10.440;2022-09-09T19:29:27;16.50;81.30
32107;DHT22;18622;51.998;10.440;2022-09-09T19:31:53;16.50;81.40
32107;DHT22;18622;51.998;10.440;2022-09-09T19:34:20;16.50;81.80
32107;DHT22;18622;51.998;10.440;2022-09-09T19:36:48;16.50;81.80
32107;DHT22;18622;51.998;10.440;2022-09-09T19:39:17;16.50;82.00
32107;DHT22;18622;51.998;10.440;2022-09-09T19:41:45;16.50;82.10
32107;DHT22;18622;51.998;10.440;2022-09-09T19:44:14;16.50;82.50
32107;DHT22;18622;51.998;10.440;2022-09-09T19:46:43;16.50;82.50
32107;DHT22;18622;51.998;10.440;2022-09-09T19:49:13;16.50;82.60
32107;DHT22;18622;51.998;10.440;2022-09-09T19:51:42;16.50;83.00
32107;DHT22;18622;51.998;10.440;2022-09-09T19:54:11;16.50;82.60
32107;DHT22;18622;51.998;10.440;2022-09-09T19:56:42;16.50;83.00
32107;DHT22;18622;51.998;10.440;2022-09-09T19:59:11;16.50;83.30
32107;DHT22;18622;51.998;10.440;2022-09-09T20:01:40;16.50;83.60
32107;DHT22;18622;51.998;10.440;2022-09-09T20:04:10;16.50;83.50
32107;DHT22;18622;51.998;10.440;2022-09-09T20:06:39;16.50;83.90
32107;DHT22;18622;51.998;10.440;2022-09-09T20:09:10;16.50;84.10
32107;DHT22;18622;51.998;10.440;2022-09-09T20:11:37;16.50;84.30
32107;DHT22;18622;51.998;10.440;2022-09-09T20:14:05;16.60;84.30
32107;DHT22;18622;51.998;10.440;2022-09-09T20:16:34;16.60;84.10
32107;DHT22;18622;51.998;10.440;2022-09-09T20:19:04;16.70;83.60
32107;DHT22;18622;51.998;10.440;2022-09-09T20:21:34;16.90;82.80
32107;DHT22;18622;51.998;10.440;2022-09-09T20:24:06;17.10;82.10
32107;DHT22;18622;51.998;10.440;2022-09-09T20:26:34;17.30;81.30
32107;DHT22;18622;51.998;10.440;2022-09-09T20:29:06;17.40;80.60
32107;DHT22;18622;51.998;10.440;2022-09-09T20:31:35;17.60;80.10
32107;DHT22;18622;51.998;10.440;2022-09-09T20:34:12;17.60;79.60
32107;DHT22;18622;51.998;10.440;2022-09-09T20:36:37;17.70;79.20
32107;DHT22;18622;51.998;10.440;2022-09-09T20:39:07;17.80;78.90
32107;DHT22;18622;51.998;10.440;2022-09-09T20:41:38;18.00;78.60
32107;DHT22;18622;51.998;10.440;2022-09-09T20:44:09;18.00;78.20
32107;DHT22;18622;51.998;10.440;2022-09-09T20:46:40;18.10;78.00
32107;DHT22;18622;51.998;10.440;2022-09-09T20:49:09;18.20;77.80
32107;DHT22;18622;51.998;10.440;2022-09-09T20:51:37;18.20;77.50
32107;DHT22;18622;51.998;10.440;2022-09-09T20:54:13;18.30;77.40
32107;DHT22;18622;51.998;10.440;2022-09-09T20:56:43;18.30;77.30
32107;DHT22;18622;51.998;10.440;2022-09-09T20:59:23;18.30;77.20
32107;DHT22;18622;51.998;10.440;2022-09-09T21:01:48;18.30;77.20
32107;DHT22;18622;51.998;10.440;2022-09-09T21:04:17;18.30;77.10
32107;DHT22;18622;51.998;10.440;2022-09-09T21:06:46;18.40;77.10
32107;DHT22;18622;51.998;10.440;2022-09-09T21:09:15;18.40;77.00
32107;DHT22;18622;51.998;10.440;2022-09-09T21:11:43;18.40;77.00
32107;DHT22;18622;51.998;10.440;2022-09-09T21:14:13;18.40;76.80
32107;DHT22;18622;51.998;10.440;2022-09-09T21:16:41;18.40;76.80
32107;DHT22;18622;51.998;10.440;2022-09-09T21:19:08;18.40;76.60
32107;DHT22;18622;51.998;10.440;2022-09-09T21:21:36;18.40;76.60
32107;DHT22;18622;51.998;10.440;2022-09-09T21:24:05;18.40;76.60
32107;DHT22;18622;51.998;10.440;2022-09-09T21:26:32;18.40;76.50
32107;DHT22;18622;51.998;10.440;2022-09-09T21:29:01;18.40;76.50
32107;DHT22;18622;51.998;10.440;2022-09-09T21:31:28;18.40;76.40
32107;DHT22;18622;51.998;10.440;2022-09-09T21:33:57;18.40;76.40
32107;DHT22;18622;51.998;10.440;2022-09-09T21:36:25;18.40;76.40
32107;DHT22;18622;51.998;10.440;2022-09-09T21:38:53;18.40;76.40
32107;DHT22;18622;51.998;10.440;2022-09-09T21:41:21;18.40;76.60
32107;DHT22;18622;51.998;10.440;2022-09-09T21:43:51;18.40;76.60
